sensor_id;sensor_type;location;lat;lon;timestamp;temperature;humidity
63899;HTU21D;50070;-32.946;-60.652;2023-10-19T00:02:13;20.42;39.30
63899;HTU21D;50070;-32.946;-60.652;2023-10-19T00:04:45;20.40;39.36
63899;HTU21D;50070;-32.946;-60.652;2023-10-19T00:07:12;20.33;39.59
63899;HTU21D;50070;-32.946;-60.652;2023-10-19T00:09:42;20.45;39.31
63899;HTU21D;50070;-32.946;-60.652;2023-10-19T00:12:12;20.48;39.51
63899;HTU21D;50070;-32.946;-60.652;2023-10-19T00:14:41;20.33;40.18
63899;HTU21D;50070;-32.946;-60.652;2023-10-19T00:17:08;20.35;40.17
63899;HTU21D;50070;-32.946;-60.652;2023-10-19T00:19:37;20.46;40.04
63899;HTU21D;50070;-32.946;-60.652;2023-10-19T00:22:23;20.49;40.14
63899;HTU21D;50070;-32.946;-60.652;2023-10-19T00:24:50;20.15;40.88
63899;HTU21D;50070;-32.946;-60.652;2023-10-19T00:27:16;20.34;40.46
63899;HTU21D;50070;-32.946;-60.652;2023-10-19T00:29:45;20.40;40.42
63899;HTU21D;50070;-32.946;-60.652;2023-10-19T00:32:16;20.36;40.20
63899;HTU21D;50070;-32.946;-60.652;2023-10-19T00:34:45;20.30;40.09
63899;HTU21D;50070;-32.946;-60.652;2023-10-19T00:37:18;20.24;40.57
63899;HTU21D;50070;-32.946;-60.652;2023-10-19T00:39:52;20.18;40.48
63899;HTU21D;50070;-32.946;-60.652;2023-10-19T00:42:24;20.31;40.01
63899;HTU21D;50070;-32.946;-60.652;2023-10-19T00:44:56;20.17;40.07
63899;HTU21D;50070;-32.946;-60.652;2023-10-19T00:47:30;20.20;39.72
63899;HTU21D;50070;-32.946;-60.652;2023-10-19T00:50:07;20.10;40.10
63899;HTU21D;50070;-32.946;-60.652;2023-10-19T00:52:42;20.12;40.40
63899;HTU21D;50070;-32.946;-60.652;2023-10-19T00:55:14;19.83;41.44
63899;HTU21D;50070;-32.946;-60.652;2023-10-19T00:57:42;19.70;42.58
63899;HTU21D;50070;-32.946;-60.652;2023-10-19T01:00:15;19.63;43.84
63899;HTU21D;50070;-32.946;-60.652;2023-10-19T01:02:59;19.59;44.80
63899;HTU21D;50070;-32.946;-60.652;2023-10-19T01:05:27;19.63;45.71
63899;HTU21D;50070;-32.946;-60.652;2023-10-19T01:08:03;19.23;48.60
63899;HTU21D;50070;-32.946;-60.652;2023-10-19T01:10:52;19.31;49.76
63899;HTU21D;50070;-32.946;-60.652;2023-10-19T01:13:20;19.21;52.09
63899;HTU21D;50070;-32.946;-60.652;2023-10-19T01:15:53;19.31;52.76
63899;HTU21D;50070;-32.946;-60.652;2023-10-19T01:18:22;19.39;53.07
63899;HTU21D;50070;-32.946;-60.652;2023-10-19T01:20:48;19.53;53.20
63899;HTU21D;50070;-32.946;-60.652;2023-10-19T01:23:21;19.51;54.11
63899;HTU21D;50070;-32.946;-60.652;2023-10-19T01:25:59;18.99;58.13
63899;HTU21D;50070;-32.946;-60.652;2023-10-19T01:28:31;18.95;60.04
63899;HTU21D;50070;-32.946;-60.652;2023-10-19T01:31:08;18.83;62.50
63899;HTU21D;50070;-32.946;-60.652;2023-10-19T01:33:41;18.86;63.63
63899;HTU21D;50070;-32.946;-60.652;2023-10-19T01:36:11;19.02;63.58
63899;HTU21D;50070;-32.946;-60.652;2023-10-19T01:38:58;18.81;66.98
63899;HTU21D;50070;-32.946;-60.652;2023-10-19T01:41:35;18.89;67.58
63899;HTU21D;50070;-32.946;-60.652;2023-10-19T01:44:02;18.98;67.75
63899;HTU21D;50070;-32.946;-60.652;2023-10-19T01:46:39;18.71;71.55
63899;HTU21D;50070;-32.946;-60.652;2023-10-19T01:49:06;18.41;75.13
63899;HTU21D;50070;-32.946;-60.652;2023-10-19T01:51:34;18.58;74.59
63899;HTU21D;50070;-32.946;-60.652;2023-10-19T01:54:05;18.37;77.77
63899;HTU21D;50070;-32.946;-60.652;2023-10-19T01:56:33;18.63;75.66
63899;HTU21D;50070;-32.946;-60.652;2023-10-19T01:59:05;18.64;76.83
63899;HTU21D;50070;-32.946;-60.652;2023-10-19T02:01:32;18.68;76.98
63899;HTU21D;50070;-32.946;-60.652;2023-10-19T02:04:01;18.72;77.29
63899;HTU21D;50070;-32.946;-60.652;2023-10-19T02:06:30;18.65;78.66
63899;HTU21D;50070;-32.946;-60.652;2023-10-19T02:09:05;18.72;78.30
63899;HTU21D;50070;-32.946;-60.652;2023-10-19T02:11:49;18.59;80.10
63899;HTU21D;50070;-32.946;-60.652;2023-10-19T02:14:19;18.44;82.51
63899;HTU21D;50070;-32.946;-60.652;2023-10-19T02:16:56;18.44;83.05
63899;HTU21D;50070;-32.946;-60.652;2023-10-19T02:19:25;18.50;82.95
63899;HTU21D;50070;-32.946;-60.652;2023-10-19T02:21:57;18.76;80.85
63899;HTU21D;50070;-32.946;-60.652;2023-10-19T02:24:25;18.64;82.39
63899;HTU21D;50070;-32.946;-60.652;2023-10-19T02:26:56;18.35;85.67
63899;HTU21D;50070;-32.946;-60.652;2023-10-19T02:29:23;18.27;86.47
63899;HTU21D;50070;-32.946;-60.652;2023-10-19T02:31:52;18.50;84.16
63899;HTU21D;50070;-32.946;-60.652;2023-10-19T02:34:22;18.18;87.83
63899;HTU21D;50070;-32.946;-60.652;2023-10-19T02:36:49;17.90;90.40
63899;HTU21D;50070;-32.946;-60.652;2023-10-19T02:39:16;18.10;88.78
63899;HTU21D;50070;-32.946;-60.652;2023-10-19T02:41:48;18.21;87.93
63899;HTU21D;50070;-32.946;-60.652;2023-10-19T02:44:16;17.88;91.53
63899;HTU21D;50070;-32.946;-60.652;2023-10-19T02:46:47;17.83;91.40
63899;HTU21D;50070;-32.946;-60.652;2023-10-19T02:49:15;17.85;91.68
63899;HTU21D;50070;-32.946;-60.652;2023-10-19T02:51:53;18.06;89.50
63899;HTU21D;50070;-32.946;-60.652;2023-10-19T02:54:21;18.04;90.02
63899;HTU21D;50070;-32.946;-60.652;2023-10-19T02:56:53;18.13;89.34
63899;HTU21D;50070;-32.946;-60.652;2023-10-19T02:59:21;18.11;89.80
63899;HTU21D;50070;-32.946;-60.652;2023-10-19T03:01:51;17.79;93.08
63899;HTU21D;50070;-32.946;-60.652;2023-10-19T03:04:20;17.95;91.76
63899;HTU21D;50070;-32.946;-60.652;2023-10-19T03:06:48;18.19;89.75
63899;HTU21D;50070;-32.946;-60.652;2023-10-19T03:09:15;18.17;89.92
63899;HTU21D;50070;-32.946;-60.652;2023-10-19T03:11:49;17.85;92.96
63899;HTU21D;50070;-32.946;-60.652;2023-10-19T03:14:20;17.81;93.56
63899;HTU21D;50070;-32.946;-60.652;2023-10-19T03:16:52;17.67;94.57
63899;HTU21D;50070;-32.946;-60.652;2023-10-19T03:19:21;17.92;91.92
63899;HTU21D;50070;-32.946;-60.652;2023-10-19T03:21:48;17.25;98.98
63899;HTU21D;50070;-32.946;-60.652;2023-10-19T03:24:18;17.59;96.04
63899;HTU21D;50070;-32.946;-60.652;2023-10-19T03:27:08;17.74;94.62
63899;HTU21D;50070;-32.946;-60.652;2023-10-19T03:29:45;17.37;98.40
63899;HTU21D;50070;-32.946;-60.652;2023-10-19T03:32:15;17.44;97.68
63899;HTU21D;50070;-32.946;-60.652;2023-10-19T03:34:42;17.49;96.88
63899;HTU21D;50070;-32.946;-60.652;2023-10-19T03:37:13;17.30;98.90
63899;HTU21D;50070;-32.946;-60.652;2023-10-19T03:39:41;17.64;95.90
63899;HTU21D;50070;-32.946;-60.652;2023-10-19T03:42:11;17.51;97.07
63899;HTU21D;50070;-32.946;-60.652;2023-10-19T03:44:40;17.50;96.88
63899;HTU21D;50070;-32.946;-60.652;2023-10-19T03:47:16;17.19;99.16
63899;HTU21D;50070;-32.946;-60.652;2023-10-19T03:50:01;17.29;99.12
63899;HTU21D;50070;-32.946;-60.652;2023-10-19T03:52:35;17.39;97.95
63899;HTU21D;50070;-32.946;-60.652;2023-10-19T03:55:04;17.60;96.11
63899;HTU21D;50070;-32.946;-60.652;2023-10-19T03:57:48;17.82;93.84
63899;HTU21D;50070;-32.946;-60.652;2023-10-19T04:00:22;17.94;92.69
63899;HTU21D;50070;-32.946;-60.652;2023-10-19T04:02:53;17.89;93.14
63899;HTU21D;50070;-32.946;-60.652;2023-10-19T04:05:21;17.90;92.61
63899;HTU21D;50070;-32.946;-60.652;2023-10-19T04:07:48;17.75;94.38
63899;HTU21D;50070;-32.946;-60.652;2023-10-19T04:10:22;17.68;94.76
63899;HTU21D;50070;-32.946;-60.652;2023-10-19T04:13:18;17.22;99.17
63899;HTU21D;50070;-32.946;-60.652;2023-10-19T04:15:45;17.36;99.08
63899;HTU21D;50070;-32.946;-60.652;2023-10-19T04:18:12;17.29;100.02
63899;HTU21D;50070;-32.946;-60.652;2023-10-19T04:20:39;17.22;99.91
63899;HTU21D;50070;-32.946;-60.652;2023-10-19T04:23:22;17.24;99.37
63899;HTU21D;50070;-32.946;-60.652;2023-10-19T04:26:01;17.22;101.06
63899;HTU21D;50070;-32.946;-60.652;2023-10-19T04:28:37;17.18;102.83
63899;HTU21D;50070;-32.946;-60.652;2023-10-19T04:31:07;17.18;104.28
63899;HTU21D;50070;-32.946;-60.652;2023-10-19T04:33:39;17.33;101.96
63899;HTU21D;50070;-32.946;-60.652;2023-10-19T04:36:09;17.34;100.99
63899;HTU21D;50070;-32.946;-60.652;2023-10-19T04:38:37;17.58;98.87
63899;HTU21D;50070;-32.946;-60.652;2023-10-19T04:41:08;17.60;97.97
63899;HTU21D;50070;-32.946;-60.652;2023-10-19T04:43:39;17.52;97.92
63899;HTU21D;50070;-32.946;-60.652;2023-10-19T04:46:11;17.67;96.31
63899;HTU21D;50070;-32.946;-60.652;2023-10-19T04:48:42;17.70;96.56
63899;HTU21D;50070;-32.946;-60.652;2023-10-19T04:51:09;17.54;97.46
63899;HTU21D;50070;-32.946;-60.652;2023-10-19T04:53:36;17.79;96.18
63899;HTU21D;50070;-32.946;-60.652;2023-10-19T04:56:04;17.61;95.40
63899;HTU21D;50070;-32.946;-60.652;2023-10-19T04:58:31;17.05;102.05
63899;HTU21D;50070;-32.946;-60.652;2023-10-19T05:00:58;17.23;102.08
63899;HTU21D;50070;-32.946;-60.652;2023-10-19T05:03:25;17.56;101.03
63899;HTU21D;50070;-32.946;-60.652;2023-10-19T05:05:55;17.11;104.34
63899;HTU21D;50070;-32.946;-60.652;2023-10-19T05:08:24;17.65;101.24
63899;HTU21D;50070;-32.946;-60.652;2023-10-19T05:10:55;17.24;102.67
63899;HTU21D;50070;-32.946;-60.652;2023-10-19T05:13:23;16.98;103.92
63899;HTU21D;50070;-32.946;-60.652;2023-10-19T05:15:54;17.14;103.79
63899;HTU21D;50070;-32.946;-60.652;2023-10-19T05:18:22;17.26;101.80
63899;HTU21D;50070;-32.946;-60.652;2023-10-19T05:20:50;17.31;100.64
63899;HTU21D;50070;-32.946;-60.652;2023-10-19T05:23:25;17.07;99.92
63899;HTU21D;50070;-32.946;-60.652;2023-10-19T05:26:03;17.19;100.50
63899;HTU21D;50070;-32.946;-60.652;2023-10-19T05:28:31;17.43;99.32
63899;HTU21D;50070;-32.946;-60.652;2023-10-19T05:30:58;17.58;97.43
63899;HTU21D;50070;-32.946;-60.652;2023-10-19T05:33:28;17.54;97.39
63899;HTU21D;50070;-32.946;-60.652;2023-10-19T05:35:56;17.31;103.63
63899;HTU21D;50070;-32.946;-60.652;2023-10-19T05:38:23;17.25;111.61
63899;HTU21D;50070;-32.946;-60.652;2023-10-19T05:40:50;16.76;110.19
63899;HTU21D;50070;-32.946;-60.652;2023-10-19T05:43:18;17.17;108.72
63899;HTU21D;50070;-32.946;-60.652;2023-10-19T05:45:45;17.30;108.60
63899;HTU21D;50070;-32.946;-60.652;2023-10-19T05:48:16;17.08;107.43
63899;HTU21D;50070;-32.946;-60.652;2023-10-19T05:50:43;17.40;104.76
63899;HTU21D;50070;-32.946;-60.652;2023-10-19T05:53:09;17.46;104.75
63899;HTU21D;50070;-32.946;-60.652;2023-10-19T05:55:36;17.02;108.62
63899;HTU21D;50070;-32.946;-60.652;2023-10-19T05:58:05;17.08;109.16
63899;HTU21D;50070;-32.946;-60.652;2023-10-19T06:00:32;16.69;110.63
63899;HTU21D;50070;-32.946;-60.652;2023-10-19T06:03:01;16.84;112.07
63899;HTU21D;50070;-32.946;-60.652;2023-10-19T06:05:28;17.08;107.28
63899;HTU21D;50070;-32.946;-60.652;2023-10-19T06:07:56;17.13;105.69
63899;HTU21D;50070;-32.946;-60.652;2023-10-19T06:10:27;17.00;106.34
63899;HTU21D;50070;-32.946;-60.652;2023-10-19T06:12:54;17.13;103.49
63899;HTU21D;50070;-32.946;-60.652;2023-10-19T06:15:22;17.11;104.42
63899;HTU21D;50070;-32.946;-60.652;2023-10-19T06:17:52;17.46;99.27
63899;HTU21D;50070;-32.946;-60.652;2023-10-19T06:20:19;17.58;95.00
63899;HTU21D;50070;-32.946;-60.652;2023-10-19T06:22:53;17.53;97.26
63899;HTU21D;50070;-32.946;-60.652;2023-10-19T06:25:23;17.80;94.11
63899;HTU21D;50070;-32.946;-60.652;2023-10-19T06:27:52;17.67;95.18
63899;HTU21D;50070;-32.946;-60.652;2023-10-19T06:30:19;17.65;97.58
63899;HTU21D;50070;-32.946;-60.652;2023-10-19T06:32:51;17.62;101.62
63899;HTU21D;50070;-32.946;-60.652;2023-10-19T06:35:18;17.85;100.20
63899;HTU21D;50070;-32.946;-60.652;2023-10-19T06:37:46;17.78;99.67
63899;HTU21D;50070;-32.946;-60.652;2023-10-19T06:40:14;17.70;102.09
63899;HTU21D;50070;-32.946;-60.652;2023-10-19T06:42:46;17.69;104.64
63899;HTU21D;50070;-32.946;-60.652;2023-10-19T06:45:14;17.76;104.36
63899;HTU21D;50070;-32.946;-60.652;2023-10-19T06:47:45;17.67;106.46
63899;HTU21D;50070;-32.946;-60.652;2023-10-19T06:50:13;17.68;100.77
63899;HTU21D;50070;-32.946;-60.652;2023-10-19T06:52:42;17.55;101.67
63899;HTU21D;50070;-32.946;-60.652;2023-10-19T06:55:10;17.66;104.92
63899;HTU21D;50070;-32.946;-60.652;2023-10-19T06:57:43;17.67;102.65
63899;HTU21D;50070;-32.946;-60.652;2023-10-19T07:02:43;17.19;104.08
63899;HTU21D;50070;-32.946;-60.652;2023-10-19T07:05:11;17.28;105.30
63899;HTU21D;50070;-32.946;-60.652;2023-10-19T07:07:44;17.09;108.37
63899;HTU21D;50070;-32.946;-60.652;2023-10-19T07:10:12;16.86;108.12
63899;HTU21D;50070;-32.946;-60.652;2023-10-19T07:12:42;16.98;109.99
63899;HTU21D;50070;-32.946;-60.652;2023-10-19T07:15:08;17.10;104.57
63899;HTU21D;50070;-32.946;-60.652;2023-10-19T07:17:43;16.90;105.31
63899;HTU21D;50070;-32.946;-60.652;2023-10-19T07:20:11;17.02;109.78
63899;HTU21D;50070;-32.946;-60.652;2023-10-19T07:22:58;16.89;105.67
63899;HTU21D;50070;-32.946;-60.652;2023-10-19T07:25:46;16.55;106.82
63899;HTU21D;50070;-32.946;-60.652;2023-10-19T07:28:20;16.73;102.63
63899;HTU21D;50070;-32.946;-60.652;2023-10-19T07:30:57;16.67;103.47
63899;HTU21D;50070;-32.946;-60.652;2023-10-19T07:33:25;16.73;103.19
63899;HTU21D;50070;-32.946;-60.652;2023-10-19T07:35:52;16.79;104.50
63899;HTU21D;50070;-32.946;-60.652;2023-10-19T07:38:22;16.77;106.49
63899;HTU21D;50070;-32.946;-60.652;2023-10-19T07:40:49;16.43;106.91
63899;HTU21D;50070;-32.946;-60.652;2023-10-19T07:43:19;16.55;109.39
63899;HTU21D;50070;-32.946;-60.652;2023-10-19T07:45:47;16.64;109.67
63899;HTU21D;50070;-32.946;-60.652;2023-10-19T07:48:14;16.44;107.16
63899;HTU21D;50070;-32.946;-60.652;2023-10-19T07:50:43;16.67;110.59
63899;HTU21D;50070;-32.946;-60.652;2023-10-19T07:53:10;16.62;107.30
63899;HTU21D;50070;-32.946;-60.652;2023-10-19T07:55:37;16.49;106.88
63899;HTU21D;50070;-32.946;-60.652;2023-10-19T07:58:05;16.70;108.89
63899;HTU21D;50070;-32.946;-60.652;2023-10-19T08:00:36;16.39;106.08
63899;HTU21D;50070;-32.946;-60.652;2023-10-19T08:03:04;16.59;105.11
63899;HTU21D;50070;-32.946;-60.652;2023-10-19T08:05:32;16.62;102.73
63899;HTU21D;50070;-32.946;-60.652;2023-10-19T08:07:59;16.84;101.40
63899;HTU21D;50070;-32.946;-60.652;2023-10-19T08:10:27;16.67;107.46
63899;HTU21D;50070;-32.946;-60.652;2023-10-19T08:12:54;16.93;102.87
63899;HTU21D;50070;-32.946;-60.652;2023-10-19T08:15:21;16.96;100.44
63899;HTU21D;50070;-32.946;-60.652;2023-10-19T08:17:49;16.95;99.09
63899;HTU21D;50070;-32.946;-60.652;2023-10-19T08:20:17;17.04;98.92
63899;HTU21D;50070;-32.946;-60.652;2023-10-19T08:22:54;17.11;98.62
63899;HTU21D;50070;-32.946;-60.652;2023-10-19T08:25:23;17.05;97.45
63899;HTU21D;50070;-32.946;-60.652;2023-10-19T08:27:50;16.66;101.42
63899;HTU21D;50070;-32.946;-60.652;2023-10-19T08:30:21;16.85;104.77
63899;HTU21D;50070;-32.946;-60.652;2023-10-19T08:32:48;16.90;102.21
63899;HTU21D;50070;-32.946;-60.652;2023-10-19T08:35:18;16.92;101.72
63899;HTU21D;50070;-32.946;-60.652;2023-10-19T08:37:47;16.96;100.80
63899;HTU21D;50070;-32.946;-60.652;2023-10-19T08:40:14;17.00;102.25
63899;HTU21D;50070;-32.946;-60.652;2023-10-19T08:42:42;16.94;102.81
63899;HTU21D;50070;-32.946;-60.652;2023-10-19T08:45:12;16.92;102.15
63899;HTU21D;50070;-32.946;-60.652;2023-10-19T08:47:57;17.05;100.93
63899;HTU21D;50070;-32.946;-60.652;2023-10-19T08:50:25;16.89;100.84
63899;HTU21D;50070;-32.946;-60.652;2023-10-19T08:52:54;16.92;103.97
63899;HTU21D;50070;-32.946;-60.652;2023-10-19T08:55:21;16.87;101.72
63899;HTU21D;50070;-32.946;-60.652;2023-10-19T08:57:52;16.69;105.59
63899;HTU21D;50070;-32.946;-60.652;2023-10-19T09:00:20;16.73;104.01
63899;HTU21D;50070;-32.946;-60.652;2023-10-19T09:02:54;16.70;102.65
63899;HTU21D;50070;-32.946;-60.652;2023-10-19T09:05:22;16.77;104.71
63899;HTU21D;50070;-32.946;-60.652;2023-10-19T09:07:50;16.73;103.98
63899;HTU21D;50070;-32.946;-60.652;2023-10-19T09:10:27;16.45;105.44
63899;HTU21D;50070;-32.946;-60.652;2023-10-19T09:13:03;16.78;103.12
63899;HTU21D;50070;-32.946;-60.652;2023-10-19T09:15:31;16.76;103.40
63899;HTU21D;50070;-32.946;-60.652;2023-10-19T09:18:18;16.51;104.78
63899;HTU21D;50070;-32.946;-60.652;2023-10-19T09:20:50;16.63;104.70
63899;HTU21D;50070;-32.946;-60.652;2023-10-19T09:23:25;16.57;105.99
63899;HTU21D;50070;-32.946;-60.652;2023-10-19T09:25:57;16.86;107.28
63899;HTU21D;50070;-32.946;-60.652;2023-10-19T09:28:24;16.79;106.56
63899;HTU21D;50070;-32.946;-60.652;2023-10-19T09:30:52;16.70;107.44
63899;HTU21D;50070;-32.946;-60.652;2023-10-19T09:33:20;16.75;107.84
63899;HTU21D;50070;-32.946;-60.652;2023-10-19T09:35:49;16.72;105.24
63899;HTU21D;50070;-32.946;-60.652;2023-10-19T09:38:19;16.67;107.73
63899;HTU21D;50070;-32.946;-60.652;2023-10-19T09:40:52;16.65;107.57
63899;HTU21D;50070;-32.946;-60.652;2023-10-19T09:46:01;16.82;107.05
63899;HTU21D;50070;-32.946;-60.652;2023-10-19T09:48:33;16.69;108.33
63899;HTU21D;50070;-32.946;-60.652;2023-10-19T09:51:03;16.80;104.93
63899;HTU21D;50070;-32.946;-60.652;2023-10-19T09:53:31;16.25;108.91
63899;HTU21D;50070;-32.946;-60.652;2023-10-19T09:55:59;16.71;106.85
63899;HTU21D;50070;-32.946;-60.652;2023-10-19T09:58:50;16.79;105.17
63899;HTU21D;50070;-32.946;-60.652;2023-10-19T10:01:16;16.40;106.96
63899;HTU21D;50070;-32.946;-60.652;2023-10-19T10:09:19;16.66;107.70
63899;HTU21D;50070;-32.946;-60.652;2023-10-19T10:11:51;16.72;105.68
63899;HTU21D;50070;-32.946;-60.652;2023-10-19T10:14:23;16.93;104.15
63899;HTU21D;50070;-32.946;-60.652;2023-10-19T10:17:01;16.67;106.53
63899;HTU21D;50070;-32.946;-60.652;2023-10-19T10:19:28;16.55;107.43
63899;HTU21D;50070;-32.946;-60.652;2023-10-19T10:22:11;16.50;107.11
63899;HTU21D;50070;-32.946;-60.652;2023-10-19T10:24:42;16.51;108.14
63899;HTU21D;50070;-32.946;-60.652;2023-10-19T10:27:09;16.55;107.60
63899;HTU21D;50070;-32.946;-60.652;2023-10-19T10:29:59;16.65;106.46
63899;HTU21D;50070;-32.946;-60.652;2023-10-19T10:32:52;16.48;109.20
63899;HTU21D;50070;-32.946;-60.652;2023-10-19T10:38:08;16.39;109.88
63899;HTU21D;50070;-32.946;-60.652;2023-10-19T10:40:49;16.41;110.17
63899;HTU21D;50070;-32.946;-60.652;2023-10-19T10:43:18;16.63;108.06
63899;HTU21D;50070;-32.946;-60.652;2023-10-19T10:45:45;16.46;109.88
63899;HTU21D;50070;-32.946;-60.652;2023-10-19T10:48:16;16.34;111.13
63899;HTU21D;50070;-32.946;-60.652;2023-10-19T10:50:43;16.66;109.22
63899;HTU21D;50070;-32.946;-60.652;2023-10-19T10:53:12;16.69;110.70
63899;HTU21D;50070;-32.946;-60.652;2023-10-19T10:55:39;16.89;108.56
63899;HTU21D;50070;-32.946;-60.652;2023-10-19T10:58:06;16.96;108.36
63899;HTU21D;50070;-32.946;-60.652;2023-10-19T11:00:33;17.34;102.46
63899;HTU21D;50070;-32.946;-60.652;2023-10-19T11:03:03;17.37;100.84
63899;HTU21D;50070;-32.946;-60.652;2023-10-19T11:05:31;17.53;100.31
63899;HTU21D;50070;-32.946;-60.652;2023-10-19T11:08:17;17.81;98.38
63899;HTU21D;50070;-32.946;-60.652;2023-10-19T11:10:46;17.38;101.60
63899;HTU21D;50070;-32.946;-60.652;2023-10-19T11:13:22;17.34;100.06
63899;HTU21D;50070;-32.946;-60.652;2023-10-19T11:15:51;17.38;99.74
63899;HTU21D;50070;-32.946;-60.652;2023-10-19T11:18:33;17.34;100.32
63899;HTU21D;50070;-32.946;-60.652;2023-10-19T11:21:06;17.35;99.19
63899;HTU21D;50070;-32.946;-60.652;2023-10-19T11:23:55;18.22;95.14
63899;HTU21D;50070;-32.946;-60.652;2023-10-19T11:26:24;18.29;90.88
63899;HTU21D;50070;-32.946;-60.652;2023-10-19T11:29:01;18.02;94.49
63899;HTU21D;50070;-32.946;-60.652;2023-10-19T11:31:30;18.35;91.44
63899;HTU21D;50070;-32.946;-60.652;2023-10-19T11:34:04;18.08;91.70
63899;HTU21D;50070;-32.946;-60.652;2023-10-19T11:36:30;18.08;92.53
63899;HTU21D;50070;-32.946;-60.652;2023-10-19T11:38:57;18.11;92.87
63899;HTU21D;50070;-32.946;-60.652;2023-10-19T11:41:24;18.22;92.34
63899;HTU21D;50070;-32.946;-60.652;2023-10-19T11:43:50;18.27;88.71
63899;HTU21D;50070;-32.946;-60.652;2023-10-19T11:46:18;18.40;89.23
63899;HTU21D;50070;-32.946;-60.652;2023-10-19T11:48:44;18.15;92.81
63899;HTU21D;50070;-32.946;-60.652;2023-10-19T11:51:11;18.42;91.81
63899;HTU21D;50070;-32.946;-60.652;2023-10-19T11:53:39;18.73;88.37
63899;HTU21D;50070;-32.946;-60.652;2023-10-19T11:56:07;18.81;88.99
63899;HTU21D;50070;-32.946;-60.652;2023-10-19T11:58:36;19.09;86.27
63899;HTU21D;50070;-32.946;-60.652;2023-10-19T12:01:13;19.18;84.32
63899;HTU21D;50070;-32.946;-60.652;2023-10-19T12:03:43;18.88;87.06
63899;HTU21D;50070;-32.946;-60.652;2023-10-19T12:06:12;19.02;86.37
63899;HTU21D;50070;-32.946;-60.652;2023-10-19T12:08:44;19.25;86.06
63899;HTU21D;50070;-32.946;-60.652;2023-10-19T12:11:11;19.09;86.97
63899;HTU21D;50070;-32.946;-60.652;2023-10-19T12:13:48;19.57;83.56
63899;HTU21D;50070;-32.946;-60.652;2023-10-19T12:16:16;19.45;84.45
63899;HTU21D;50070;-32.946;-60.652;2023-10-19T12:18:44;19.62;81.94
63899;HTU21D;50070;-32.946;-60.652;2023-10-19T12:21:11;19.81;79.49
63899;HTU21D;50070;-32.946;-60.652;2023-10-19T12:23:44;19.97;78.05
63899;HTU21D;50070;-32.946;-60.652;2023-10-19T12:26:17;19.51;82.52
63899;HTU21D;50070;-32.946;-60.652;2023-10-19T12:28:44;19.68;81.52
63899;HTU21D;50070;-32.946;-60.652;2023-10-19T12:31:13;19.97;78.90
63899;HTU21D;50070;-32.946;-60.652;2023-10-19T12:33:41;20.43;74.96
63899;HTU21D;50070;-32.946;-60.652;2023-10-19T12:36:08;20.18;76.41
63899;HTU21D;50070;-32.946;-60.652;2023-10-19T12:38:53;20.77;71.71
63899;HTU21D;50070;-32.946;-60.652;2023-10-19T12:41:24;20.62;74.44
63899;HTU21D;50070;-32.946;-60.652;2023-10-19T12:43:51;20.88;73.61
63899;HTU21D;50070;-32.946;-60.652;2023-10-19T12:46:28;20.50;76.84
63899;HTU21D;50070;-32.946;-60.652;2023-10-19T12:48:56;20.74;74.44
63899;HTU21D;50070;-32.946;-60.652;2023-10-19T12:51:23;20.91;72.02
63899;HTU21D;50070;-32.946;-60.652;2023-10-19T12:53:54;21.39;65.40
63899;HTU21D;50070;-32.946;-60.652;2023-10-19T12:56:22;21.23;67.52
63899;HTU21D;50070;-32.946;-60.652;2023-10-19T12:58:55;21.34;68.67
63899;HTU21D;50070;-32.946;-60.652;2023-10-19T13:01:22;21.55;66.85
63899;HTU21D;50070;-32.946;-60.652;2023-10-19T13:03:48;21.46;67.47
63899;HTU21D;50070;-32.946;-60.652;2023-10-19T13:06:17;21.96;63.93
63899;HTU21D;50070;-32.946;-60.652;2023-10-19T13:08:45;21.90;65.11
63899;HTU21D;50070;-32.946;-60.652;2023-10-19T13:11:12;21.50;70.22
63899;HTU21D;50070;-32.946;-60.652;2023-10-19T13:13:41;21.79;67.75
63899;HTU21D;50070;-32.946;-60.652;2023-10-19T13:16:08;22.03;64.03
63899;HTU21D;50070;-32.946;-60.652;2023-10-19T13:18:37;22.72;59.41
63899;HTU21D;50070;-32.946;-60.652;2023-10-19T13:21:06;22.94;57.46
63899;HTU21D;50070;-32.946;-60.652;2023-10-19T13:23:35;22.78;57.84
63899;HTU21D;50070;-32.946;-60.652;2023-10-19T13:26:02;23.37;55.11
63899;HTU21D;50070;-32.946;-60.652;2023-10-19T13:28:55;22.68;58.73
63899;HTU21D;50070;-32.946;-60.652;2023-10-19T13:31:22;23.31;54.79
63899;HTU21D;50070;-32.946;-60.652;2023-10-19T13:33:49;23.35;55.75
63899;HTU21D;50070;-32.946;-60.652;2023-10-19T13:36:16;23.16;57.71
63899;HTU21D;50070;-32.946;-60.652;2023-10-19T13:38:43;23.58;54.24
63899;HTU21D;50070;-32.946;-60.652;2023-10-19T13:41:10;23.85;53.73
63899;HTU21D;50070;-32.946;-60.652;2023-10-19T13:43:40;23.47;56.09
63899;HTU21D;50070;-32.946;-60.652;2023-10-19T13:46:08;21.63;67.57
63899;HTU21D;50070;-32.946;-60.652;2023-10-19T13:48:35;21.97;66.24
63899;HTU21D;50070;-32.946;-60.652;2023-10-19T13:51:04;22.52;62.90
63899;HTU21D;50070;-32.946;-60.652;2023-10-19T13:53:42;21.84;68.36
63899;HTU21D;50070;-32.946;-60.652;2023-10-19T13:56:11;22.72;62.28
63899;HTU21D;50070;-32.946;-60.652;2023-10-19T13:58:39;22.41;65.12
63899;HTU21D;50070;-32.946;-60.652;2023-10-19T14:01:09;21.90;69.10
63899;HTU21D;50070;-32.946;-60.652;2023-10-19T14:03:38;21.85;70.68
63899;HTU21D;50070;-32.946;-60.652;2023-10-19T14:06:05;22.84;61.66
63899;HTU21D;50070;-32.946;-60.652;2023-10-19T14:08:32;23.56;56.87
63899;HTU21D;50070;-32.946;-60.652;2023-10-19T14:11:02;23.80;56.68
63899;HTU21D;50070;-32.946;-60.652;2023-10-19T14:13:29;24.51;52.07
63899;HTU21D;50070;-32.946;-60.652;2023-10-19T14:15:56;24.69;48.37
63899;HTU21D;50070;-32.946;-60.652;2023-10-19T14:18:23;24.64;49.16
63899;HTU21D;50070;-32.946;-60.652;2023-10-19T14:20:50;24.72;51.43
63899;HTU21D;50070;-32.946;-60.652;2023-10-19T14:23:16;23.91;54.85
63899;HTU21D;50070;-32.946;-60.652;2023-10-19T14:25:43;23.69;56.76
63899;HTU21D;50070;-32.946;-60.652;2023-10-19T14:28:10;24.14;54.17
63899;HTU21D;50070;-32.946;-60.652;2023-10-19T14:30:38;23.36;58.74
63899;HTU21D;50070;-32.946;-60.652;2023-10-19T14:33:05;23.88;56.18
63899;HTU21D;50070;-32.946;-60.652;2023-10-19T14:35:37;24.23;54.80
63899;HTU21D;50070;-32.946;-60.652;2023-10-19T14:38:08;24.27;52.81
63899;HTU21D;50070;-32.946;-60.652;2023-10-19T14:40:35;24.17;53.33
63899;HTU21D;50070;-32.946;-60.652;2023-10-19T14:43:02;25.00;48.57
63899;HTU21D;50070;-32.946;-60.652;2023-10-19T14:45:29;25.40;47.81
63899;HTU21D;50070;-32.946;-60.652;2023-10-19T14:47:57;24.75;51.24
63899;HTU21D;50070;-32.946;-60.652;2023-10-19T14:50:25;24.39;52.04
63899;HTU21D;50070;-32.946;-60.652;2023-10-19T14:52:53;24.93;50.59
63899;HTU21D;50070;-32.946;-60.652;2023-10-19T14:55:23;24.82;50.18
63899;HTU21D;50070;-32.946;-60.652;2023-10-19T14:57:52;25.31;48.41
63899;HTU21D;50070;-32.946;-60.652;2023-10-19T15:00:23;25.15;48.26
63899;HTU21D;50070;-32.946;-60.652;2023-10-19T15:03:11;25.35;46.69
63899;HTU21D;50070;-32.946;-60.652;2023-10-19T15:05:38;25.53;44.75